createdAt,value
2022-12-19T00:00:14.974Z,0.44
2022-12-19T00:01:13.381Z,0.96
2022-12-19T00:02:13.380Z,2.52
2022-12-19T00:03:13.850Z,1.84
2022-12-19T00:04:12.875Z,0.72
2022-12-19T00:05:13.975Z,1.16
2022-12-19T00:06:13.729Z,1.60
2022-12-19T00:07:14.044Z,2.08
2022-12-19T00:08:15.500Z,1.52
2022-12-19T00:09:14.130Z,1.16
2022-12-19T00:10:13.059Z,1.32
2022-12-19T00:11:13.015Z,2.44
2022-12-19T00:12:18.858Z,0.96
2022-12-19T00:13:13.484Z,1.04
2022-12-19T00:14:13.512Z,1.12
2022-12-19T00:15:13.834Z,1.56
2022-12-19T00:16:13.905Z,0.80
2022-12-19T00:17:13.181Z,1.40
2022-12-19T00:18:13.260Z,3.12
2022-12-19T00:19:13.374Z,1.96
2022-12-19T00:20:13.500Z,2.64
2022-12-19T00:21:13.946Z,1.32
2022-12-19T00:24:21.145Z,0.48
2022-12-19T00:25:13.899Z,0.48
2022-12-19T00:26:13.503Z,1.08
2022-12-19T00:27:13.552Z,0.84
2022-12-19T00:28:13.617Z,0.76
2022-12-19T00:29:14.589Z,1.68
2022-12-19T00:30:14.000Z,0.64
2022-12-19T00:31:13.425Z,0.24
2022-12-19T00:32:13.985Z,1.60
2022-12-19T00:33:13.595Z,0.60
2022-12-19T00:34:14.016Z,0.44
2022-12-19T00:35:12.837Z,1.00
2022-12-19T00:36:13.706Z,4.16
2022-12-19T00:37:12.975Z,1.20
2022-12-19T00:38:12.974Z,0.64
2022-12-19T00:39:12.877Z,0.20
2022-12-19T00:40:14.083Z,0.76
2022-12-19T00:41:13.144Z,1.64
2022-12-19T00:42:13.226Z,1.36
2022-12-19T00:43:13.486Z,3.48
2022-12-19T00:44:13.301Z,11.08
2022-12-19T00:45:13.080Z,3.12
2022-12-19T00:46:14.348Z,4.08
2022-12-19T00:47:13.494Z,5.20
2022-12-19T00:48:13.705Z,0.96
2022-12-19T00:49:13.711Z,4.64
2022-12-19T00:50:13.907Z,6.68
2022-12-19T00:51:12.918Z,5.12
2022-12-19T00:52:12.810Z,4.28
2022-12-19T00:53:13.812Z,2.40
2022-12-19T00:54:13.916Z,3.92
2022-12-19T00:55:18.974Z,3.88
2022-12-19T00:56:13.549Z,2.76
2022-12-19T00:57:13.548Z,4.60
2022-12-19T00:58:13.834Z,1.16
2022-12-19T00:59:14.083Z,6.96
2022-12-19T01:00:13.467Z,6.28
2022-12-19T01:01:13.883Z,3.12
2022-12-19T01:02:13.058Z,2.20
2022-12-19T01:03:13.535Z,2.64
2022-12-19T01:04:30.551Z,2.44
2022-12-19T01:05:13.684Z,3.00
2022-12-19T01:06:13.565Z,2.32
2022-12-19T01:07:13.741Z,2.64
2022-12-19T01:08:14.138Z,3.88
2022-12-19T01:09:13.649Z,2.96
2022-12-19T01:10:13.871Z,3.52
2022-12-19T01:11:13.935Z,2.84
2022-12-19T01:12:12.845Z,2.80
2022-12-19T01:13:14.063Z,4.84
2022-12-19T01:14:17.477Z,6.04
2022-12-19T01:15:12.809Z,2.12
2022-12-19T01:16:14.146Z,3.36
2022-12-19T01:17:13.137Z,2.68
2022-12-19T01:18:13.154Z,1.68
2022-12-19T01:19:13.558Z,4.72
2022-12-19T01:20:13.732Z,5.20
2022-12-19T01:21:13.873Z,6.16
2022-12-19T01:22:14.101Z,6.27
2022-12-19T01:23:13.884Z,4.56
2022-12-19T01:24:13.718Z,2.96
2022-12-19T01:25:15.230Z,4.96
2022-12-19T01:26:13.731Z,2.88
2022-12-19T01:27:13.969Z,3.20
2022-12-19T01:28:12.999Z,3.16
2022-12-19T01:29:13.934Z,4.28
2022-12-19T01:30:13.124Z,6.00
2022-12-19T01:31:14.098Z,4.48
2022-12-19T01:32:14.121Z,6.20
2022-12-19T01:33:13.281Z,6.88
2022-12-19T01:34:13.590Z,2.20
2022-12-19T01:35:21.066Z,4.20
2022-12-19T01:36:13.497Z,1.68
2022-12-19T01:37:13.369Z,3.80
2022-12-19T01:38:13.292Z,4.80
2022-12-19T01:39:13.116Z,2.04
2022-12-19T01:40:13.493Z,4.08
2022-12-19T01:41:13.591Z,11.60
2022-12-19T01:42:13.522Z,4.68
2022-12-19T01:43:13.657Z,9.80
2022-12-19T01:44:13.663Z,5.68
2022-12-19T01:45:14.217Z,8.56
2022-12-19T01:46:13.697Z,7.88
2022-12-19T01:47:13.459Z,4.16
2022-12-19T01:48:13.455Z,8.60
2022-12-19T01:49:13.489Z,8.44
2022-12-19T01:50:13.430Z,5.76
2022-12-19T01:51:13.497Z,8.40
2022-12-19T01:52:15.978Z,6.52
2022-12-19T01:53:13.938Z,8.24
2022-12-19T01:54:13.439Z,7.16
2022-12-19T01:55:14.033Z,10.92
2022-12-19T01:56:13.329Z,7.64
2022-12-19T01:57:13.756Z,3.60
2022-12-19T01:58:14.248Z,9.68
2022-12-19T01:59:13.289Z,8.44
2022-12-19T02:00:13.275Z,4.84
2022-12-19T02:01:13.350Z,7.92
2022-12-19T02:02:13.845Z,5.32
2022-12-19T02:03:13.175Z,5.80
2022-12-19T02:04:13.134Z,9.00
2022-12-19T02:05:13.027Z,6.48
2022-12-19T02:06:13.167Z,4.96
2022-12-19T02:07:16.025Z,12.44
2022-12-19T02:08:13.498Z,8.64
2022-12-19T02:09:13.580Z,7.04
2022-12-19T02:10:13.813Z,5.96
2022-12-19T02:11:12.883Z,4.68
2022-12-19T02:12:12.889Z,8.04
2022-12-19T02:13:12.839Z,9.28
2022-12-19T02:14:13.787Z,11.72
2022-12-19T02:15:13.671Z,10.08
2022-12-19T02:16:14.182Z,7.80
2022-12-19T02:17:13.157Z,10.84
2022-12-19T02:18:13.260Z,10.68
2022-12-19T02:19:13.745Z,8.96
2022-12-19T02:20:13.882Z,14.40
2022-12-19T02:21:13.240Z,17.80
2022-12-19T02:22:18.762Z,14.28
2022-12-19T02:23:13.065Z,8.96
2022-12-19T02:24:13.835Z,7.52
2022-12-19T02:25:13.861Z,8.40
2022-12-19T02:26:14.159Z,6.60
2022-12-19T02:27:13.090Z,4.52
2022-12-19T02:28:13.224Z,4.68
2022-12-19T02:29:13.417Z,2.60
2022-12-19T02:30:13.387Z,5.64
2022-12-19T02:31:17.512Z,4.32
2022-12-19T02:32:13.303Z,5.40
2022-12-19T02:33:13.453Z,4.72
2022-12-19T02:34:13.554Z,2.92
2022-12-19T02:35:13.528Z,6.88
2022-12-19T02:36:13.431Z,7.52
2022-12-19T02:37:14.003Z,3.84
2022-12-19T02:38:13.793Z,3.80
2022-12-19T02:39:13.926Z,3.44
2022-12-19T02:40:13.089Z,8.16
2022-12-19T02:41:13.088Z,7.80
2022-12-19T02:42:13.306Z,3.84
2022-12-19T02:43:13.749Z,12.80
2022-12-19T02:44:14.047Z,9.12
2022-12-19T02:45:13.107Z,3.64
2022-12-19T02:46:13.210Z,4.32
2022-12-19T02:47:13.353Z,1.12
2022-12-19T02:48:18.941Z,1.24
2022-12-19T02:49:16.554Z,4.64
2022-12-19T02:50:13.536Z,6.44
2022-12-19T02:51:13.550Z,3.48
2022-12-19T02:52:14.202Z,3.80
2022-12-19T02:53:13.718Z,4.36
2022-12-19T02:54:13.959Z,1.48
2022-12-19T02:55:12.956Z,6.08
2022-12-19T02:56:13.214Z,5.12
2022-12-19T02:57:13.284Z,6.92
2022-12-19T02:58:13.535Z,4.64
2022-12-19T02:59:13.456Z,8.44
2022-12-19T03:00:13.553Z,4.32
2022-12-19T03:01:13.605Z,3.04
2022-12-19T03:02:13.909Z,6.20
2022-12-19T03:03:12.980Z,8.80
2022-12-19T03:04:13.057Z,3.92
2022-12-19T03:05:13.101Z,5.44
2022-12-19T03:06:13.320Z,4.04
2022-12-19T03:07:13.352Z,5.36
2022-12-19T03:08:13.704Z,5.28
2022-12-19T03:09:13.702Z,5.52
2022-12-19T03:10:13.713Z,10.12
2022-12-19T03:11:14.221Z,8.64
2022-12-19T03:12:17.322Z,3.40
2022-12-19T03:13:13.923Z,7.08
2022-12-19T03:14:12.958Z,4.56
2022-12-19T03:15:13.218Z,3.84
2022-12-19T03:16:13.234Z,6.52
2022-12-19T03:17:13.373Z,8.40
2022-12-19T03:18:13.379Z,8.88
2022-12-19T03:19:13.682Z,6.40
2022-12-19T03:20:14.673Z,3.04
2022-12-19T03:21:13.911Z,9.28
2022-12-19T03:22:14.348Z,12.08
2022-12-19T03:23:13.755Z,13.24
2022-12-19T03:24:14.194Z,8.88
2022-12-19T03:25:13.177Z,6.12
2022-12-19T03:26:13.749Z,12.44
2022-12-19T03:27:14.796Z,5.64
2022-12-19T03:28:13.768Z,6.12
2022-12-19T03:29:13.799Z,9.92
2022-12-19T03:30:12.885Z,6.36
2022-12-19T03:31:13.218Z,9.76
2022-12-19T03:32:13.642Z,17.96
2022-12-19T03:33:13.682Z,12.48
2022-12-19T03:34:14.192Z,6.00
2022-12-19T03:35:13.495Z,5.72
2022-12-19T03:36:13.524Z,15.64
2022-12-19T03:37:13.911Z,10.20
2022-12-19T03:38:13.345Z,6.64
2022-12-19T03:39:13.660Z,8.44
2022-12-19T03:40:13.901Z,15.92
2022-12-19T03:41:13.659Z,10.12
2022-12-19T03:42:13.644Z,12.12
2022-12-19T03:43:14.597Z,14.44
2022-12-19T03:44:13.600Z,11.52
2022-12-19T03:45:13.581Z,15.32
2022-12-19T03:46:14.502Z,11.72
2022-12-19T03:47:13.406Z,8.32
2022-12-19T03:48:13.432Z,3.44
2022-12-19T03:49:13.429Z,9.44
2022-12-19T03:50:13.428Z,12.84
2022-12-19T03:51:13.353Z,10.24
2022-12-19T03:52:13.499Z,8.80
2022-12-19T03:53:13.973Z,9.56
2022-12-19T03:54:13.015Z,15.36
2022-12-19T03:55:13.312Z,9.64
2022-12-19T03:56:13.201Z,14.32
2022-12-19T03:57:13.811Z,16.92
2022-12-19T03:58:13.904Z,10.60
2022-12-19T03:59:13.754Z,9.16
2022-12-19T04:00:13.998Z,8.20
2022-12-19T04:01:13.173Z,10.36
2022-12-19T04:02:13.683Z,10.40
2022-12-19T04:03:13.865Z,8.52
2022-12-19T04:04:13.181Z,13.88
2022-12-19T04:05:13.459Z,7.40
2022-12-19T04:06:13.441Z,13.80
2022-12-19T04:07:14.339Z,12.24
2022-12-19T04:08:13.809Z,6.56
2022-12-19T04:09:16.817Z,7.68
2022-12-19T04:10:13.687Z,10.80
2022-12-19T04:11:14.430Z,16.88
2022-12-19T04:12:13.594Z,6.36
2022-12-19T04:13:13.783Z,13.96
2022-12-19T04:14:14.683Z,12.40
2022-12-19T04:15:13.696Z,9.40
2022-12-19T04:16:13.932Z,11.72
2022-12-19T04:17:13.223Z,22.08
2022-12-19T04:18:13.292Z,15.88
2022-12-19T04:19:13.320Z,10.12
2022-12-19T04:20:13.316Z,9.88
2022-12-19T04:21:13.249Z,16.12
2022-12-19T04:22:13.699Z,7.40
2022-12-19T04:23:13.920Z,7.48
2022-12-19T04:24:13.027Z,5.20
2022-12-19T04:25:12.968Z,5.60
2022-12-19T04:26:12.892Z,5.64
2022-12-19T04:27:12.781Z,6.40
2022-12-19T04:28:15.279Z,8.32
2022-12-19T04:29:13.422Z,5.40
2022-12-19T04:30:13.687Z,4.60
2022-12-19T04:31:13.932Z,17.28
2022-12-19T04:32:13.073Z,13.12
2022-12-19T04:33:13.210Z,8.28
2022-12-19T04:34:13.312Z,7.60
2022-12-19T04:35:13.827Z,6.40
2022-12-19T04:36:13.839Z,5.00
2022-12-19T04:37:14.305Z,6.96
2022-12-19T04:38:13.590Z,10.44
2022-12-19T04:39:13.789Z,10.08
2022-12-19T04:40:14.085Z,12.12
2022-12-19T04:41:13.009Z,13.40
2022-12-19T04:42:12.912Z,5.92
2022-12-19T04:43:12.817Z,7.28
2022-12-19T04:44:13.861Z,8.64
2022-12-19T04:45:14.121Z,11.64
2022-12-19T04:46:13.799Z,8.68
2022-12-19T04:47:13.863Z,11.08
2022-12-19T04:48:13.803Z,7.24
2022-12-19T04:49:13.708Z,21.92
2022-12-19T04:50:13.824Z,15.24
2022-12-19T04:51:13.875Z,12.72
2022-12-19T04:52:13.973Z,17.08
2022-12-19T04:53:13.014Z,19.00
2022-12-19T04:54:13.186Z,21.12
2022-12-19T04:55:13.149Z,8.44
2022-12-19T04:56:13.307Z,6.04
2022-12-19T04:57:13.384Z,5.80
2022-12-19T04:58:16.413Z,7.60
2022-12-19T04:59:13.387Z,6.00
2022-12-19T05:00:13.593Z,9.24
2022-12-19T05:01:13.891Z,5.40
2022-12-19T05:02:13.171Z,12.20
2022-12-19T05:03:13.360Z,11.00
2022-12-19T05:04:13.530Z,5.96
2022-12-19T05:05:14.403Z,7.36
2022-12-19T05:06:13.534Z,6.20
2022-12-19T05:07:13.742Z,5.00
2022-12-19T05:08:13.711Z,5.60
2022-12-19T05:09:13.593Z,9.28
2022-12-19T05:10:14.159Z,13.20
2022-12-19T05:11:19.216Z,7.12
2022-12-19T05:12:13.638Z,12.52
2022-12-19T05:13:13.553Z,6.20
2022-12-19T05:14:14.087Z,7.44
2022-12-19T05:15:13.181Z,6.92
2022-12-19T05:16:13.513Z,6.56
2022-12-19T05:17:13.753Z,6.92
2022-12-19T05:18:13.917Z,4.80
2022-12-19T05:19:13.087Z,9.40
2022-12-19T05:20:13.382Z,13.12
2022-12-19T05:21:13.693Z,7.60
2022-12-19T05:22:14.129Z,8.36
2022-12-19T05:23:17.337Z,7.84
2022-12-19T05:24:13.224Z,9.40
2022-12-19T05:25:13.401Z,8.72
2022-12-19T05:26:13.944Z,11.60
2022-12-19T05:27:13.147Z,6.32
2022-12-19T05:28:13.299Z,10.40
2022-12-19T05:29:13.680Z,6.80
2022-12-19T05:30:13.890Z,8.96
2022-12-19T05:31:13.156Z,6.80
2022-12-19T05:32:13.358Z,9.40
2022-12-19T05:33:13.255Z,11.92
2022-12-19T05:34:13.701Z,10.48
2022-12-19T05:35:13.715Z,9.36
2022-12-19T05:36:14.000Z,3.92
2022-12-19T05:37:12.855Z,4.48
2022-12-19T05:38:13.722Z,8.88
2022-12-19T05:39:13.015Z,3.32
2022-12-19T05:40:13.168Z,11.64
2022-12-19T05:41:13.698Z,13.40
2022-12-19T05:42:13.796Z,7.60
2022-12-19T05:43:14.094Z,5.00
2022-12-19T05:44:13.059Z,5.60
2022-12-19T05:45:13.252Z,6.80
2022-12-19T05:46:41.935Z,7.98
2022-12-19T05:47:14.058Z,1.44
2022-12-19T05:48:13.578Z,6.20
2022-12-19T05:49:13.514Z,4.32
2022-12-19T05:50:13.888Z,5.56
2022-12-19T05:51:13.925Z,7.28
2022-12-19T05:52:12.932Z,7.60
2022-12-19T05:53:12.901Z,8.04
2022-12-19T05:54:13.069Z,6.12
2022-12-19T05:55:13.280Z,11.84
2022-12-19T05:56:13.618Z,12.84
2022-12-19T05:57:13.763Z,16.36
2022-12-19T05:58:13.662Z,10.48
2022-12-19T05:59:13.243Z,13.12
2022-12-19T06:00:13.316Z,12.44
2022-12-19T06:01:13.724Z,11.24
2022-12-19T06:02:14.949Z,11.68
2022-12-19T06:03:13.226Z,12.44
2022-12-19T06:04:13.153Z,10.44
2022-12-19T06:05:13.871Z,5.92
2022-12-19T06:06:13.039Z,13.40
2022-12-19T06:07:17.831Z,11.64
2022-12-19T06:08:13.741Z,5.88
2022-12-19T06:09:13.776Z,8.92
2022-12-19T06:10:14.070Z,8.52
2022-12-19T06:11:13.136Z,5.44
2022-12-19T06:12:13.121Z,3.36
2022-12-19T06:13:13.087Z,7.84
2022-12-19T06:14:13.558Z,16.56
2022-12-19T06:15:13.966Z,8.12
2022-12-19T06:16:13.080Z,3.68
2022-12-19T06:17:13.542Z,7.16
2022-12-19T06:18:13.839Z,11.76
2022-12-19T06:19:13.774Z,10.52
2022-12-19T06:20:13.747Z,10.92
2022-12-19T06:21:13.999Z,7.88
2022-12-19T06:22:13.187Z,11.60
2022-12-19T06:23:13.180Z,14.88
2022-12-19T06:24:14.544Z,13.04
2022-12-19T06:25:13.531Z,11.80
2022-12-19T06:26:18.543Z,14.84
2022-12-19T06:27:12.803Z,9.28
2022-12-19T06:28:13.668Z,15.40
2022-12-19T06:29:13.800Z,7.28
2022-12-19T06:30:13.829Z,11.28
2022-12-19T06:31:14.503Z,8.12
2022-12-19T06:32:13.624Z,6.36
2022-12-19T06:33:13.546Z,14.56
2022-12-19T06:34:27.310Z,6.04
2022-12-19T06:35:13.822Z,6.76
2022-12-19T06:36:20.275Z,6.44
2022-12-19T06:37:13.644Z,7.36
2022-12-19T06:38:14.215Z,7.12
2022-12-19T06:39:13.235Z,8.08
2022-12-19T06:40:13.440Z,8.32
2022-12-19T06:41:13.433Z,8.24
2022-12-19T06:42:13.500Z,5.32
2022-12-19T06:43:13.728Z,5.00
2022-12-19T06:44:13.889Z,9.56
2022-12-19T06:45:12.831Z,8.92
2022-12-19T06:46:13.911Z,7.76
2022-12-19T06:47:13.013Z,7.60
2022-12-19T06:48:13.094Z,5.28
2022-12-19T06:49:13.243Z,10.32
2022-12-19T06:50:13.785Z,10.04
2022-12-19T06:51:13.873Z,8.00
2022-12-19T06:52:14.061Z,3.96
2022-12-19T06:53:13.373Z,7.56
2022-12-19T06:54:14.400Z,7.24
2022-12-19T06:55:12.912Z,13.72
2022-12-19T06:56:13.012Z,6.80
2022-12-19T06:57:13.014Z,8.68
2022-12-19T06:58:12.984Z,9.68
2022-12-19T06:59:13.325Z,8.80
2022-12-19T07:00:13.161Z,7.40
2022-12-19T07:01:13.590Z,4.40
2022-12-19T07:02:13.921Z,6.52
2022-12-19T07:03:13.301Z,9.44
2022-12-19T07:04:13.549Z,5.96
2022-12-19T07:05:13.260Z,6.96
2022-12-19T07:06:13.147Z,10.16
2022-12-19T07:07:13.325Z,7.52
2022-12-19T07:08:13.639Z,6.92
2022-12-19T07:09:13.969Z,6.76
2022-12-19T07:10:13.049Z,10.80
2022-12-19T07:11:13.295Z,8.60
2022-12-19T07:12:13.395Z,6.16
2022-12-19T07:13:13.599Z,7.24
2022-12-19T07:14:14.105Z,8.24
2022-12-19T07:15:13.239Z,7.32
2022-12-19T07:16:13.685Z,8.48
2022-12-19T07:17:13.901Z,11.92
2022-12-19T07:18:12.941Z,8.08
2022-12-19T07:19:13.136Z,6.52
2022-12-19T07:20:13.027Z,7.52
2022-12-19T07:21:13.233Z,4.28
2022-12-19T07:22:13.085Z,4.40
2022-12-19T07:23:13.431Z,13.36
2022-12-19T07:24:13.503Z,12.28
2022-12-19T07:25:14.495Z,11.76
2022-12-19T07:26:13.763Z,8.64
2022-12-19T07:27:13.817Z,7.32
2022-12-19T07:28:13.949Z,11.36
2022-12-19T07:29:13.039Z,10.80
2022-12-19T07:30:13.153Z,9.08
2022-12-19T07:31:13.225Z,10.48
2022-12-19T07:32:13.266Z,5.20
2022-12-19T07:33:18.291Z,8.08
2022-12-19T07:34:13.704Z,9.68
2022-12-19T07:35:16.012Z,9.44
2022-12-19T07:36:12.996Z,11.52
2022-12-19T07:37:12.982Z,9.64
2022-12-19T07:38:12.917Z,7.16
2022-12-19T07:39:13.169Z,9.32
2022-12-19T07:40:13.147Z,4.68
2022-12-19T07:41:13.004Z,4.04
2022-12-19T07:42:12.988Z,7.68
2022-12-19T07:43:13.134Z,3.36
2022-12-19T07:44:13.118Z,5.92
2022-12-19T07:45:13.137Z,13.12
2022-12-19T07:46:13.185Z,6.52
2022-12-19T07:47:13.364Z,6.92
2022-12-19T07:48:13.244Z,13.88
2022-12-19T07:49:16.974Z,8.28
2022-12-19T07:50:13.842Z,8.68
2022-12-19T07:51:13.008Z,8.20
2022-12-19T07:52:13.109Z,14.00
2022-12-19T07:53:13.114Z,8.48
2022-12-19T07:54:13.060Z,7.92
2022-12-19T07:55:13.236Z,10.36
2022-12-19T07:56:13.143Z,12.56
2022-12-19T07:57:13.506Z,10.24
2022-12-19T07:58:13.805Z,8.44
2022-12-19T07:59:14.930Z,10.60
2022-12-19T08:00:13.027Z,7.28
2022-12-19T08:01:13.812Z,8.56
2022-12-19T08:02:14.100Z,11.04
2022-12-19T08:05:19.266Z,13.08
2022-12-19T08:06:18.427Z,16.08
2022-12-19T08:07:13.726Z,9.24
2022-12-19T08:08:13.895Z,10.68
2022-12-19T08:09:13.399Z,10.32
2022-12-19T08:10:13.575Z,7.84
2022-12-19T08:11:14.531Z,14.68
2022-12-19T08:12:18.963Z,9.96
2022-12-19T08:13:13.098Z,8.76
2022-12-19T08:14:14.239Z,6.72
2022-12-19T08:15:14.379Z,8.80
2022-12-19T08:16:14.061Z,8.16
2022-12-19T08:17:21.304Z,5.92
2022-12-19T08:18:13.731Z,12.16
2022-12-19T08:19:13.829Z,10.36
2022-12-19T08:20:13.844Z,7.72
2022-12-19T08:21:14.392Z,6.24
2022-12-19T08:22:45.315Z,12.24
2022-12-19T08:23:13.230Z,8.88
2022-12-19T08:24:13.626Z,14.44
2022-12-19T08:25:13.841Z,20.92
2022-12-19T08:26:14.054Z,9.40
2022-12-19T08:27:13.482Z,8.88
2022-12-19T08:28:14.372Z,13.72
2022-12-19T08:29:13.521Z,19.08
2022-12-19T08:30:13.671Z,27.28
2022-12-19T08:31:18.722Z,15.80
2022-12-19T08:32:20.264Z,12.36
2022-12-19T08:33:13.492Z,13.08
2022-12-19T08:34:13.456Z,8.40
2022-12-19T08:35:13.567Z,13.37
2022-12-19T08:36:13.707Z,8.12
2022-12-19T08:37:14.128Z,6.36
2022-12-19T08:38:13.484Z,10.68
2022-12-19T08:39:13.668Z,13.64
2022-12-19T08:40:13.884Z,16.32
2022-12-19T08:41:13.422Z,9.32
2022-12-19T08:42:13.530Z,9.56
2022-12-19T08:43:13.878Z,4.88
2022-12-19T08:44:14.059Z,6.32
2022-12-19T08:45:13.233Z,5.24
2022-12-19T08:46:13.466Z,11.64
2022-12-19T08:47:13.390Z,8.64
2022-12-19T08:48:13.270Z,7.36
2022-12-19T08:49:13.406Z,5.76
2022-12-19T08:50:13.373Z,4.16
2022-12-19T08:51:13.930Z,5.76
2022-12-19T08:52:12.816Z,4.76
2022-12-19T08:53:13.923Z,8.84
2022-12-19T08:54:12.883Z,5.76
2022-12-19T08:55:12.963Z,6.16
2022-12-19T08:56:13.224Z,7.08
2022-12-19T08:57:13.230Z,5.96
2022-12-19T08:58:13.204Z,12.40
2022-12-19T08:59:13.893Z,7.48
2022-12-19T09:00:13.193Z,10.52
2022-12-19T09:01:13.050Z,7.00
2022-12-19T09:02:13.516Z,3.84
2022-12-19T09:03:13.823Z,5.92
2022-12-19T09:05:09.617Z,4.60
2022-12-19T09:06:01.519Z,7.12
2022-12-19T09:06:18.961Z,8.12
2022-12-19T09:07:15.454Z,12.96
2022-12-19T09:08:13.066Z,12.68
2022-12-19T09:09:13.146Z,12.24
2022-12-19T09:10:13.053Z,7.64
2022-12-19T09:11:13.797Z,7.08
2022-12-19T09:12:12.942Z,6.96
2022-12-19T09:13:12.873Z,12.36
2022-12-19T09:14:14.244Z,8.56
2022-12-19T09:15:13.640Z,10.12
2022-12-19T09:16:13.634Z,12.52
2022-12-19T09:17:13.740Z,8.52
2022-12-19T09:18:13.756Z,10.24
2022-12-19T09:19:13.656Z,10.44
2022-12-19T09:20:18.096Z,7.20
2022-12-19T09:21:13.458Z,14.68
2022-12-19T09:22:13.764Z,12.16
2022-12-19T09:23:13.858Z,10.92
2022-12-19T09:24:13.830Z,14.24
2022-12-19T09:25:13.954Z,12.80
2022-12-19T09:26:12.862Z,7.68
2022-12-19T09:27:14.360Z,17.28
2022-12-19T09:28:27.838Z,16.12
2022-12-19T09:29:20.602Z,13.92
2022-12-19T09:30:13.888Z,9.96
2022-12-19T09:31:13.000Z,18.64
2022-12-19T09:32:12.972Z,13.24
2022-12-19T09:33:13.091Z,7.92
2022-12-19T09:34:13.123Z,14.28
2022-12-19T09:35:13.549Z,8.88
2022-12-19T09:36:13.727Z,6.40
2022-12-19T09:37:17.241Z,6.12
2022-12-19T09:38:14.079Z,14.84
2022-12-19T09:39:13.115Z,15.68
2022-12-19T09:40:13.076Z,10.48
2022-12-19T09:41:13.189Z,15.52
2022-12-19T09:42:13.782Z,8.00
2022-12-19T09:43:14.200Z,13.92
2022-12-19T09:44:13.160Z,13.52
2022-12-19T09:45:14.484Z,9.80
2022-12-19T09:46:13.044Z,7.16
2022-12-19T09:47:13.009Z,14.84
2022-12-19T09:48:24.206Z,16.36
2022-12-19T09:49:13.246Z,14.52
2022-12-19T09:50:13.283Z,8.60
2022-12-19T09:51:13.367Z,17.60
2022-12-19T09:52:13.558Z,11.68
2022-12-19T09:53:13.699Z,9.40
2022-12-19T09:54:13.910Z,10.88
2022-12-19T09:55:13.961Z,13.60
2022-12-19T09:56:13.170Z,10.04
2022-12-19T09:57:13.534Z,9.48
2022-12-19T09:58:13.701Z,15.84
2022-12-19T09:59:14.006Z,11.24
2022-12-19T10:00:13.016Z,10.96
2022-12-19T10:01:12.906Z,9.80
2022-12-19T10:02:13.276Z,11.96
2022-12-19T10:03:13.609Z,15.56
2022-12-19T10:04:13.915Z,8.44
2022-12-19T10:05:25.678Z,13.20
2022-12-19T10:07:15.758Z,7.72
2022-12-19T10:08:13.527Z,8.64
2022-12-19T10:09:51.311Z,11.28
2022-12-19T10:12:36.644Z,7.76
2022-12-19T10:12:37.401Z,6.88
2022-12-19T10:12:45.062Z,10.40
2022-12-19T10:13:13.677Z,7.60
2022-12-19T10:14:18.922Z,9.92
2022-12-19T10:15:13.019Z,9.00
2022-12-19T10:16:21.386Z,15.60
2022-12-19T10:17:24.482Z,10.08
2022-12-19T10:20:14.146Z,10.37
2022-12-19T10:21:13.176Z,10.48
2022-12-19T10:22:18.709Z,8.76
2022-12-19T10:23:13.277Z,18.28
2022-12-19T10:24:13.287Z,13.08
2022-12-19T10:25:13.231Z,10.96
2022-12-19T10:26:13.365Z,9.80
2022-12-19T10:27:13.518Z,8.60
2022-12-19T10:28:13.922Z,12.32
2022-12-19T10:29:13.163Z,10.56
2022-12-19T10:30:13.908Z,9.60
2022-12-19T10:31:21.096Z,13.44
2022-12-19T10:32:13.383Z,10.56
2022-12-19T10:33:19.997Z,12.88
2022-12-19T10:34:13.253Z,10.92
2022-12-19T10:35:13.248Z,23.32
2022-12-19T10:36:13.097Z,20.80
2022-12-19T10:37:26.521Z,15.72
2022-12-19T10:38:13.489Z,22.36
2022-12-19T10:39:13.390Z,15.16
2022-12-19T10:40:27.258Z,9.28
2022-12-19T10:41:13.368Z,15.68
2022-12-19T10:42:13.499Z,14.36
2022-12-19T10:43:19.157Z,5.48
2022-12-19T10:44:13.876Z,6.88
2022-12-19T10:45:14.053Z,9.48
2022-12-19T10:46:13.521Z,8.12
2022-12-19T10:47:13.951Z,6.24
2022-12-19T10:48:13.539Z,7.64
2022-12-19T10:49:13.980Z,6.52
2022-12-19T10:50:13.615Z,12.80
2022-12-19T10:51:13.787Z,11.36
2022-12-19T10:52:14.179Z,10.36
2022-12-19T10:53:13.177Z,13.96
2022-12-19T10:54:13.115Z,21.00
2022-12-19T10:55:13.238Z,11.76
2022-12-19T10:56:13.496Z,19.16
2022-12-19T10:57:13.743Z,19.92
2022-12-19T10:58:13.672Z,17.16
2022-12-19T10:59:13.691Z,12.84
2022-12-19T11:00:14.135Z,8.36
2022-12-19T11:01:13.430Z,12.12
2022-12-19T11:02:13.771Z,13.44
2022-12-19T11:03:14.045Z,6.76
2022-12-19T11:04:13.806Z,7.78
2022-12-19T11:05:14.282Z,12.12
2022-12-19T11:06:13.386Z,13.08
2022-12-19T11:07:13.564Z,13.17
2022-12-19T11:08:13.427Z,10.12
2022-12-19T11:09:13.315Z,14.12
2022-12-19T11:11:29.318Z,7.28
2022-12-19T11:12:37.925Z,10.20
2022-12-19T11:16:38.339Z,11.80
2022-12-19T11:18:58.860Z,10.72
2022-12-19T11:19:13.480Z,10.00
2022-12-19T11:20:28.142Z,7.44
2022-12-19T11:21:42.363Z,11.20
2022-12-19T11:26:03.770Z,10.28
2022-12-19T11:28:01.421Z,4.20
2022-12-19T11:29:15.352Z,5.36
2022-12-19T11:29:30.007Z,9.12
2022-12-19T11:29:30.009Z,12.12
2022-12-19T11:29:43.288Z,9.64
2022-12-19T11:29:44.790Z,5.16
2022-12-19T11:29:55.844Z,6.16
2022-12-19T11:30:25.737Z,11.72
2022-12-19T11:30:26.151Z,11.08
2022-12-19T11:30:45.723Z,6.12
2022-12-19T11:30:48.179Z,10.24
2022-12-19T11:32:38.990Z,6.20
2022-12-19T11:33:13.295Z,9.64
2022-12-19T11:34:13.344Z,13.44
2022-12-19T11:35:13.389Z,12.08
2022-12-19T11:36:13.653Z,9.92
2022-12-19T11:37:13.618Z,12.56
2022-12-19T11:38:13.757Z,10.96
2022-12-19T11:39:13.878Z,15.96
2022-12-19T11:40:12.791Z,12.24
2022-12-19T11:41:13.856Z,9.40
2022-12-19T11:42:13.063Z,16.80
2022-12-19T11:43:42.437Z,14.72
2022-12-19T11:44:13.927Z,12.20
2022-12-19T11:45:13.032Z,12.76
2022-12-19T11:46:19.393Z,10.24
2022-12-19T11:47:14.034Z,22.80
2022-12-19T11:48:15.311Z,22.96
2022-12-19T11:49:13.941Z,19.00
2022-12-19T11:50:13.195Z,6.72
2022-12-19T11:51:13.162Z,25.08
2022-12-19T11:52:37.003Z,9.68
2022-12-19T11:53:18.881Z,19.32
2022-12-19T11:54:14.575Z,14.16
2022-12-19T11:55:13.408Z,12.16
2022-12-19T11:56:16.598Z,15.76
2022-12-19T11:57:13.137Z,12.68
2022-12-19T11:58:13.459Z,17.36
2022-12-19T11:59:13.431Z,14.20
2022-12-19T12:00:13.444Z,6.80
2022-12-19T12:01:18.893Z,6.12
2022-12-19T12:02:12.953Z,13.80
2022-12-19T12:03:12.894Z,13.68
2022-12-19T12:04:13.266Z,16.64
2022-12-19T12:05:13.878Z,13.12
2022-12-19T12:06:13.652Z,24.64
2022-12-19T12:07:47.196Z,13.96
2022-12-19T12:09:53.777Z,17.08
2022-12-19T12:13:04.163Z,17.92
2022-12-19T12:14:27.898Z,26.56
2022-12-19T12:14:49.832Z,16.64
2022-12-19T12:19:43.540Z,16.20
2022-12-19T12:23:50.594Z,18.40
2022-12-19T12:25:01.431Z,15.92
2022-12-19T12:25:47.830Z,5.36
2022-12-19T12:27:59.898Z,7.96
2022-12-19T12:30:11.699Z,11.80
2022-12-19T12:31:01.331Z,7.88
2022-12-19T12:31:05.046Z,15.68
2022-12-19T12:31:05.471Z,14.76
2022-12-19T12:31:05.880Z,20.68
2022-12-19T12:31:22.910Z,13.04
2022-12-19T12:31:23.086Z,12.52
2022-12-19T12:31:45.690Z,13.88
2022-12-19T12:31:48.723Z,17.68
2022-12-19T12:31:50.444Z,12.96
2022-12-19T12:31:50.629Z,21.30
2022-12-19T12:31:50.996Z,14.08
2022-12-19T12:31:52.580Z,16.88
2022-12-19T12:31:57.584Z,11.16
2022-12-19T12:35:28.863Z,6.68
2022-12-19T12:35:34.264Z,10.16
2022-12-19T12:35:42.378Z,5.72
2022-12-19T12:38:11.014Z,4.80
2022-12-19T12:38:22.684Z,2.52
2022-12-19T12:39:18.208Z,5.08
2022-12-19T12:40:13.473Z,9.64
2022-12-19T12:41:15.304Z,10.56
2022-12-19T12:42:13.631Z,8.60
2022-12-19T12:43:13.596Z,6.12
2022-12-19T12:44:13.511Z,8.60
2022-12-19T12:45:13.940Z,4.76
2022-12-19T12:46:13.213Z,4.40
2022-12-19T12:47:13.201Z,7.64
2022-12-19T12:48:13.240Z,6.24
2022-12-19T12:49:13.330Z,6.88
2022-12-19T12:50:13.263Z,5.72
2022-12-19T12:51:13.392Z,7.44
2022-12-19T12:52:13.506Z,7.92
2022-12-19T12:53:14.246Z,8.36
2022-12-19T12:54:13.202Z,11.52
2022-12-19T12:55:13.067Z,13.20
2022-12-19T12:56:18.069Z,7.96
2022-12-19T12:57:13.253Z,8.96
2022-12-19T12:58:15.299Z,12.76
2022-12-19T12:59:13.166Z,7.92
2022-12-19T13:00:13.271Z,11.20
2022-12-19T13:01:13.520Z,7.20
2022-12-19T13:02:13.820Z,7.00
2022-12-19T13:03:13.568Z,6.76
2022-12-19T13:04:13.724Z,3.76
2022-12-19T13:05:13.774Z,4.64
2022-12-19T13:06:14.049Z,3.52
2022-12-19T13:07:17.793Z,11.52
2022-12-19T13:08:16.399Z,11.92
2022-12-19T13:09:18.553Z,8.24
2022-12-19T13:11:13.853Z,9.02
2022-12-19T13:12:14.018Z,4.68
2022-12-19T13:13:25.956Z,3.76
2022-12-19T13:14:13.169Z,3.96
2022-12-19T13:15:13.242Z,4.68
2022-12-19T13:16:13.779Z,8.32
2022-12-19T13:17:14.070Z,7.96
2022-12-19T13:18:13.178Z,7.12
2022-12-19T13:19:19.666Z,6.20
2022-12-19T13:20:13.908Z,4.28
2022-12-19T13:21:13.008Z,4.52
2022-12-19T13:22:13.100Z,6.72
2022-12-19T13:23:13.309Z,6.96